Aérodrome :
LOGIN :

S'inscrire | Disclaimer

   EN    FR    IT 

 










Légende :    VFR   VFR Marginal   IFR   IFR Intensif   IFR Très Intensif
Visi : 
Plafond : 
>= 8 km
>= 3000ft
5 à 8 km
1000 à 3000 ft
1500m à 5 km
500 à 1000 ft
800 à 1500m
200 à 500 ft
< 800m
< 200 ft
Symboles :   Orages  Brouillard  Fortes neiges  Fortes précipitations  Vent > 20 kt
SIGMETs :   Divers  Orages  Givrage  Turbulence  Onde Orograph.  Cendres Volcan.







- Altitude de l'aérodrome : 1504 ft
- Code IATA : PNA


LEPP - Noain Pamplona

DERNIER METAR :
  • 261000Z 36018KT CAVOK 13/M08 Q1024

METARs EXPIRÉS :
  • 260930Z 36017KT CAVOK 13/M07 Q1024
  • 260900Z 34017KT CAVOK 11/M06 Q1024
  • 260830Z 32014KT CAVOK 09/M02 Q1024
  • 260800Z 32016KT CAVOK 07/M01 Q1024
  • 260730Z 32018KT CAVOK 06/M01 Q1024

TAF TAF LEPP
Valide du 26 à 09h jusqu'au 27 à 09h UTC


260800Z 2609/2709 35008KT CAVOK TX15/2614Z TN03/2706Z
TEMPO 2609/2619 34018KT
PROB40
TEMPO 2611/2618 34015G29KT
Pas de NOTAMs connus pour ce terrain.
1 SIGMET publié pour la FIR Madrid (LECM) :
 
Turbulence forte
LECM SIGMET 2 VALID 260800/261200 LEVA
LECM MADRID FIR SEV TURB FCST S OF LINE N3656 W00721 - N3628 W00203 SFC/FL050 STNR NC=



MET'MAP, la Météo Aéronautique d'un coup d'oeil ! - Copyright ORBIFLY Décembre 2007 - Disclaimer

ORBIFLY MET'MAP TEAM :

Programmation & Développement : Alexandra Zaïnal
Conception & Développement : Baudouin d'Aumeries
Co-Programmation & Développement : Marc-Olivier Méhu
Soutien technique & logistique : Manuel Goepfert

Contact : metmap@orbifly.com




SOURCES & CREDITS :

   NOAA